createdAt,value
2022-08-07T00:01:44.206Z,11.07
2022-08-07T00:04:09.555Z,7.10
2022-08-07T00:06:45.533Z,9.70
2022-08-07T00:09:22.647Z,11.27
2022-08-07T00:11:55.861Z,7.43
2022-08-07T00:14:30.266Z,6.20
2022-08-07T00:16:59.274Z,7.15
2022-08-07T00:19:34.208Z,10.60
2022-08-07T00:22:24.837Z,8.57
2022-08-07T00:25:07.514Z,12.27
2022-08-07T00:27:53.534Z,10.93
2022-08-07T00:30:27.227Z,9.23
2022-08-07T00:32:59.350Z,12.02
2022-08-07T00:35:27.616Z,8.20
2022-08-07T00:37:57.641Z,11.07
2022-08-07T00:40:39.060Z,11.82
2022-08-07T00:43:09.838Z,12.23
2022-08-07T00:45:41.726Z,12.30
2022-08-07T00:48:13.252Z,10.67
2022-08-07T00:50:50.847Z,8.68
2022-08-07T00:53:20.344Z,7.15
2022-08-07T00:56:03.061Z,10.82
2022-08-07T00:58:31.073Z,7.47
2022-08-07T01:00:58.665Z,7.50
2022-08-07T01:03:55.766Z,9.45
2022-08-07T01:06:13.121Z,8.80
2022-08-07T01:08:43.125Z,8.57
2022-08-07T01:12:05.021Z,7.50
2022-08-07T01:14:05.095Z,10.23
2022-08-07T01:16:32.102Z,7.30
2022-08-07T01:18:58.954Z,9.48
2022-08-07T01:21:27.007Z,10.32
2022-08-07T01:23:57.127Z,7.70
2022-08-07T01:26:26.047Z,7.67
2022-08-07T01:28:54.087Z,8.80
2022-08-07T01:31:27.937Z,8.18
2022-08-07T01:34:08.828Z,6.22
2022-08-07T01:36:36.426Z,7.82
2022-08-07T01:39:09.944Z,9.07
2022-08-07T01:41:40.899Z,8.65
2022-08-07T01:44:21.766Z,8.48
2022-08-07T01:46:50.289Z,7.90
2022-08-07T01:49:16.971Z,8.57
2022-08-07T01:52:01.522Z,7.83
2022-08-07T01:54:36.765Z,8.45
2022-08-07T01:57:24.928Z,14.52
2022-08-07T02:00:01.009Z,9.32
2022-08-07T02:03:12.204Z,9.15
2022-08-07T02:05:53.696Z,10.63
2022-08-07T02:08:29.394Z,12.27
2022-08-07T02:10:59.588Z,11.23
2022-08-07T02:13:57.427Z,11.07
2022-08-07T02:16:28.384Z,12.55
2022-08-07T02:18:56.291Z,8.90
2022-08-07T02:21:24.365Z,8.85
2022-08-07T02:23:53.226Z,12.80
2022-08-07T02:26:32.809Z,8.50
2022-08-07T02:29:06.261Z,12.30
2022-08-07T02:31:41.087Z,12.10
2022-08-07T02:34:11.470Z,10.02
2022-08-07T02:36:46.012Z,9.27
2022-08-07T02:39:16.937Z,11.20
2022-08-07T02:42:02.945Z,9.07
2022-08-07T02:44:37.355Z,11.97
2022-08-07T02:47:19.231Z,12.00
2022-08-07T02:49:58.380Z,9.98
2022-08-07T02:52:38.686Z,9.30
2022-08-07T02:56:03.327Z,11.85
2022-08-07T02:58:19.276Z,13.33
2022-08-07T03:00:51.929Z,10.73
2022-08-07T03:03:22.506Z,9.00
2022-08-07T03:05:54.246Z,16.58
2022-08-07T03:08:26.717Z,10.90
2022-08-07T03:10:57.593Z,11.77
2022-08-07T03:13:25.434Z,11.65
2022-08-07T03:15:58.388Z,11.68
2022-08-07T03:18:34.705Z,12.07
2022-08-07T03:21:08.580Z,13.70
2022-08-07T03:24:20.820Z,9.00
2022-08-07T03:26:31.913Z,12.23
2022-08-07T03:29:01.996Z,10.50
2022-08-07T03:31:42.470Z,11.20
2022-08-07T03:34:18.727Z,11.85
2022-08-07T03:36:53.155Z,10.47
2022-08-07T03:39:58.969Z,11.85
2022-08-07T03:42:10.242Z,10.85
2022-08-07T03:44:38.639Z,10.18
2022-08-07T03:47:13.708Z,13.27
2022-08-07T03:49:52.022Z,11.60
2022-08-07T03:52:26.724Z,10.55
2022-08-07T03:55:06.519Z,11.73
2022-08-07T03:58:32.637Z,14.55
2022-08-07T04:00:30.669Z,11.93
2022-08-07T04:03:03.998Z,14.80
2022-08-07T04:05:41.056Z,11.85
2022-08-07T04:08:18.670Z,12.48
2022-08-07T04:10:53.845Z,11.75
2022-08-07T04:13:27.635Z,11.68
2022-08-07T04:15:54.775Z,12.23
2022-08-07T04:18:56.509Z,14.63
2022-08-07T04:21:08.267Z,11.13
2022-08-07T04:23:43.667Z,11.82
2022-08-07T04:26:22.943Z,19.50
2022-08-07T04:28:51.840Z,10.87
2022-08-07T04:31:20.097Z,15.45
2022-08-07T04:34:06.508Z,12.32
2022-08-07T04:36:44.014Z,11.10
2022-08-07T04:39:12.245Z,12.38
2022-08-07T04:41:39.028Z,12.23
2022-08-07T04:44:12.192Z,12.18
2022-08-07T04:47:04.980Z,13.75
2022-08-07T04:49:57.516Z,11.93
2022-08-07T04:52:52.250Z,15.02
2022-08-07T04:58:13.822Z,18.63
2022-08-07T04:59:09.189Z,10.38
2022-08-07T05:01:42.811Z,10.98
2022-08-07T05:04:17.917Z,13.88
2022-08-07T05:06:57.340Z,13.07
2022-08-07T05:09:45.998Z,10.73
2022-08-07T05:12:27.376Z,13.70
2022-08-07T05:15:23.553Z,14.95
2022-08-07T05:17:57.962Z,11.63
2022-08-07T05:20:33.704Z,8.52
2022-08-07T05:23:15.614Z,10.27
2022-08-07T05:26:10.726Z,11.50
2022-08-07T05:28:34.964Z,9.60
2022-08-07T05:31:03.793Z,9.40
2022-08-07T05:33:35.460Z,12.45
2022-08-07T05:36:06.936Z,10.57
2022-08-07T05:39:01.499Z,8.95
2022-08-07T05:41:27.105Z,10.43
2022-08-07T05:44:15.357Z,9.55
2022-08-07T05:46:43.453Z,12.82
2022-08-07T05:49:12.896Z,11.67
2022-08-07T05:51:46.510Z,11.07
2022-08-07T05:54:30.331Z,10.65
2022-08-07T05:56:58.960Z,10.63
2022-08-07T05:59:28.071Z,9.63
2022-08-07T06:01:58.388Z,10.73
2022-08-07T06:04:29.960Z,10.90
2022-08-07T06:07:03.770Z,10.20
2022-08-07T06:10:04.547Z,9.45
2022-08-07T06:12:20.978Z,8.60
2022-08-07T06:14:55.190Z,9.13
2022-08-07T06:17:37.545Z,9.43
2022-08-07T06:20:06.222Z,8.95
2022-08-07T06:22:42.214Z,6.80
2022-08-07T06:25:28.689Z,7.50
2022-08-07T06:28:06.165Z,7.37
2022-08-07T06:30:37.370Z,9.07
2022-08-07T06:33:09.835Z,7.70
2022-08-07T06:35:48.056Z,10.60
2022-08-07T06:38:30.385Z,8.48
2022-08-07T06:40:59.937Z,8.03
2022-08-07T06:43:39.773Z,7.28
2022-08-07T06:46:11.623Z,6.40
2022-08-07T06:48:41.964Z,8.40
2022-08-07T06:51:16.903Z,9.55
2022-08-07T06:55:28.725Z,7.33
2022-08-07T06:56:51.732Z,7.72
2022-08-07T07:00:13.187Z,7.05
2022-08-07T07:02:15.688Z,11.50
2022-08-07T07:05:02.858Z,7.70
2022-08-07T07:08:00.148Z,7.47
2022-08-07T07:10:21.339Z,7.50
2022-08-07T07:12:58.795Z,8.15
2022-08-07T07:15:35.787Z,6.28
2022-08-07T07:18:06.047Z,5.15
2022-08-07T07:20:55.821Z,4.87
2022-08-07T07:24:09.952Z,6.55
2022-08-07T07:26:32.362Z,5.45
2022-08-07T07:29:56.835Z,7.15
2022-08-07T07:32:03.459Z,6.25
2022-08-07T07:34:32.234Z,5.17
2022-08-07T07:37:14.549Z,6.95
2022-08-07T07:39:55.312Z,4.97
2022-08-07T07:42:33.257Z,5.93
2022-08-07T07:45:02.510Z,8.23
2022-08-07T07:47:30.377Z,5.77
2022-08-07T07:50:33.642Z,11.65
2022-08-07T07:53:20.476Z,5.53
2022-08-07T07:56:00.970Z,5.15
2022-08-07T07:58:40.220Z,5.93
2022-08-07T08:02:02.707Z,7.13
2022-08-07T08:04:11.087Z,5.20
2022-08-07T08:06:50.992Z,9.88
2022-08-07T08:09:22.706Z,5.75
2022-08-07T08:12:02.656Z,5.72
2022-08-07T08:14:36.650Z,5.33
2022-08-07T08:17:32.400Z,5.13
2022-08-07T08:20:18.574Z,5.82
2022-08-07T08:23:09.358Z,9.73
2022-08-07T08:25:58.214Z,6.90
2022-08-07T08:28:38.193Z,4.43
2022-08-07T08:31:15.847Z,6.53
2022-08-07T08:33:50.205Z,7.10
2022-08-07T08:36:30.124Z,4.80
2022-08-07T08:39:01.679Z,6.03
2022-08-07T08:41:57.919Z,4.80
2022-08-07T08:44:40.897Z,5.80
2022-08-07T08:47:25.904Z,5.15
2022-08-07T08:50:17.565Z,5.90
2022-08-07T08:53:19.703Z,6.75
2022-08-07T08:56:27.188Z,4.53
2022-08-07T08:58:59.736Z,4.28
2022-08-07T09:01:59.689Z,5.32
2022-08-07T09:04:31.691Z,5.30
2022-08-07T09:07:06.321Z,6.25
2022-08-07T09:09:57.139Z,5.60
2022-08-07T09:12:42.028Z,5.63
2022-08-07T09:16:25.687Z,4.68
2022-08-07T09:18:58.674Z,6.00
2022-08-07T09:21:58.055Z,4.68
2022-08-07T09:24:58.723Z,4.90
2022-08-07T09:27:20.608Z,5.80
2022-08-07T09:30:03.873Z,6.80
2022-08-07T09:32:33.357Z,4.60
2022-08-07T09:36:04.929Z,5.60
2022-08-07T09:38:10.403Z,5.97
2022-08-07T09:41:05.916Z,6.80
2022-08-07T09:44:06.470Z,10.40
2022-08-07T09:47:50.519Z,5.57
2022-08-07T09:50:18.657Z,6.22
2022-08-07T09:53:07.771Z,10.37
2022-08-07T09:56:34.017Z,4.32
2022-08-07T09:59:21.965Z,4.85
2022-08-07T10:02:29.648Z,5.38
2022-08-07T10:05:59.461Z,6.28
2022-08-07T10:08:30.786Z,4.80
2022-08-07T10:12:02.249Z,4.07
2022-08-07T10:14:31.287Z,6.05
2022-08-07T10:17:19.963Z,5.97
2022-08-07T10:20:21.895Z,4.90
2022-08-07T10:23:07.755Z,4.27
2022-08-07T10:25:57.966Z,6.30
2022-08-07T10:28:33.254Z,4.65
2022-08-07T10:31:38.830Z,5.95
2022-08-07T10:34:18.288Z,7.25
2022-08-07T10:36:58.709Z,5.50
2022-08-07T10:39:41.499Z,6.60
2022-08-07T10:42:40.752Z,6.03
2022-08-07T10:45:44.434Z,4.85
2022-08-07T10:48:24.775Z,5.65
2022-08-07T10:51:39.540Z,7.07
2022-08-07T10:54:39.220Z,5.50
2022-08-07T10:57:22.097Z,6.20
2022-08-07T11:00:39.423Z,7.93
2022-08-07T11:03:12.732Z,6.68
2022-08-07T11:05:52.575Z,3.77
2022-08-07T11:09:02.798Z,7.20
2022-08-07T11:11:43.368Z,6.93
2022-08-07T11:14:46.351Z,5.20
2022-08-07T11:17:23.327Z,5.45
2022-08-07T11:20:12.642Z,6.63
2022-08-07T11:23:02.788Z,5.68
2022-08-07T11:25:48.173Z,4.65
2022-08-07T11:28:20.235Z,4.30
2022-08-07T11:31:21.313Z,5.75
2022-08-07T11:34:00.261Z,6.37
2022-08-07T11:36:43.795Z,4.75
2022-08-07T11:39:23.282Z,4.30
2022-08-07T11:42:18.650Z,7.15
2022-08-07T11:44:58.142Z,5.82
2022-08-07T11:47:56.035Z,4.33
2022-08-07T11:50:57.661Z,5.18
2022-08-07T11:53:35.308Z,4.30
2022-08-07T11:56:26.965Z,4.63
2022-08-07T12:00:08.256Z,7.63
2022-08-07T12:02:02.923Z,4.43
2022-08-07T12:05:09.027Z,4.57
2022-08-07T12:07:53.402Z,7.45
2022-08-07T12:10:41.974Z,4.75
2022-08-07T12:13:37.315Z,5.88
2022-08-07T12:16:10.697Z,5.83
2022-08-07T12:19:21.592Z,4.88
2022-08-07T12:22:38.621Z,4.88
2022-08-07T12:26:21.540Z,5.07
2022-08-07T12:29:00.609Z,6.10
2022-08-07T12:31:53.209Z,5.40
2022-08-07T12:34:26.684Z,5.90
2022-08-07T12:36:56.409Z,5.90
2022-08-07T12:39:43.000Z,5.85
2022-08-07T12:42:13.415Z,5.65
2022-08-07T12:44:45.653Z,5.37
2022-08-07T12:47:43.935Z,5.50
2022-08-07T12:50:38.930Z,5.15
2022-08-07T12:54:24.320Z,4.45
2022-08-07T12:56:34.461Z,5.65
2022-08-07T12:59:05.076Z,4.10
2022-08-07T13:01:54.610Z,4.30
2022-08-07T13:05:01.005Z,4.85
2022-08-07T13:08:13.699Z,4.68
2022-08-07T13:10:59.423Z,4.50
2022-08-07T13:13:47.369Z,5.33
2022-08-07T13:16:27.655Z,4.80
2022-08-07T13:19:46.287Z,5.40
2022-08-07T13:22:30.955Z,6.68
2022-08-07T13:25:06.869Z,5.22
2022-08-07T13:28:12.531Z,5.07
2022-08-07T13:30:48.969Z,5.22
2022-08-07T13:34:30.946Z,5.55
2022-08-07T13:36:41.016Z,4.63
2022-08-07T13:40:33.849Z,5.32
2022-08-07T13:42:27.110Z,6.20
2022-08-07T13:46:11.610Z,5.97
2022-08-07T13:48:05.918Z,5.55
2022-08-07T13:50:33.798Z,6.15
2022-08-07T13:53:05.041Z,5.78
2022-08-07T13:55:36.887Z,6.63
2022-08-07T13:58:31.709Z,5.82
2022-08-07T14:01:10.766Z,4.68
2022-08-07T14:04:05.536Z,6.03
2022-08-07T14:06:38.364Z,5.07
2022-08-07T14:09:07.234Z,6.00
2022-08-07T14:11:53.949Z,6.40
2022-08-07T14:14:38.580Z,4.40
2022-08-07T14:17:13.013Z,4.47
2022-08-07T14:20:41.971Z,7.00
2022-08-07T14:22:51.603Z,5.07
2022-08-07T14:25:25.405Z,4.97
2022-08-07T14:28:31.167Z,4.85
2022-08-07T14:30:47.971Z,4.53
2022-08-07T14:33:22.345Z,9.15
2022-08-07T14:35:55.732Z,5.43
2022-08-07T14:38:30.927Z,5.38
2022-08-07T14:41:05.047Z,5.72
2022-08-07T14:43:57.455Z,6.65
2022-08-07T14:46:30.654Z,4.20
2022-08-07T14:49:00.352Z,4.93
2022-08-07T14:52:04.500Z,5.43
2022-08-07T14:54:35.913Z,4.75
2022-08-07T14:57:18.659Z,4.47
2022-08-07T15:00:03.172Z,5.10
2022-08-07T15:02:34.604Z,4.10
2022-08-07T15:05:02.996Z,6.53
2022-08-07T15:07:51.114Z,6.90
2022-08-07T15:10:25.057Z,5.95
2022-08-07T15:12:59.856Z,6.28
2022-08-07T15:18:41.715Z,5.05
2022-08-07T15:21:58.884Z,5.28
2022-08-07T15:25:15.252Z,4.88
2022-08-07T15:27:03.780Z,5.93
2022-08-07T15:30:09.567Z,4.93
2022-08-07T15:32:39.820Z,9.80
2022-08-07T15:36:01.691Z,5.38
2022-08-07T15:41:24.422Z,8.38
2022-08-07T15:44:04.895Z,4.57
2022-08-07T15:46:38.344Z,4.60
2022-08-07T15:49:13.209Z,4.78
2022-08-07T15:54:34.203Z,5.10
2022-08-07T15:57:02.854Z,4.53
2022-08-07T15:59:39.603Z,5.05
2022-08-07T16:02:23.681Z,5.85
2022-08-07T16:04:57.756Z,4.97
2022-08-07T16:08:29.104Z,5.93
2022-08-07T16:10:20.734Z,5.77
2022-08-07T16:13:18.045Z,5.05
2022-08-07T16:16:47.790Z,4.85
2022-08-07T16:19:16.167Z,5.85
2022-08-07T16:22:03.446Z,7.43
2022-08-07T16:24:59.782Z,4.70
2022-08-07T16:27:39.894Z,5.80
2022-08-07T16:30:29.595Z,5.82
2022-08-07T16:34:02.721Z,4.40
2022-08-07T16:36:07.626Z,5.65
2022-08-07T16:39:00.897Z,4.40
2022-08-07T16:41:41.746Z,4.63
2022-08-07T16:44:57.278Z,5.22
2022-08-07T16:48:02.631Z,5.97
2022-08-07T16:51:20.349Z,4.53
2022-08-07T16:54:05.990Z,5.27
2022-08-07T16:56:50.353Z,7.20
2022-08-07T16:59:46.344Z,5.80
2022-08-07T17:02:52.366Z,12.65
2022-08-07T17:06:22.448Z,5.57
2022-08-07T17:08:57.230Z,4.73
2022-08-07T17:12:04.139Z,6.95
2022-08-07T17:14:46.459Z,5.38
2022-08-07T17:17:44.004Z,4.50
2022-08-07T17:20:37.426Z,8.43
2022-08-07T17:23:22.579Z,5.40
2022-08-07T17:26:24.192Z,5.60
2022-08-07T17:30:12.396Z,8.05
2022-08-07T17:32:06.583Z,5.03
2022-08-07T17:35:33.137Z,4.97
2022-08-07T17:38:06.419Z,7.60
2022-08-07T17:42:00.831Z,6.57
2022-08-07T17:44:02.742Z,7.10
2022-08-07T17:46:37.501Z,5.20
2022-08-07T17:49:46.284Z,5.85
2022-08-07T17:52:36.949Z,5.33
2022-08-07T17:55:12.611Z,4.53
2022-08-07T17:57:58.939Z,5.15
2022-08-07T18:00:34.271Z,5.93
2022-08-07T18:03:28.742Z,5.75
2022-08-07T18:06:36.716Z,6.73
2022-08-07T18:09:05.706Z,6.68
2022-08-07T18:12:17.690Z,4.60
2022-08-07T18:14:38.301Z,4.95
2022-08-07T18:18:46.719Z,5.78
2022-08-07T18:21:07.069Z,7.00
2022-08-07T18:23:43.120Z,7.93
2022-08-07T18:26:18.143Z,7.45
2022-08-07T18:30:05.887Z,6.50
2022-08-07T18:32:33.730Z,5.72
2022-08-07T18:35:51.724Z,7.47
2022-08-07T18:38:58.810Z,6.82
2022-08-07T18:41:46.320Z,5.07
2022-08-07T18:44:50.755Z,7.25
2022-08-07T18:47:44.664Z,7.53
2022-08-07T18:50:46.732Z,5.37
2022-08-07T18:53:16.335Z,5.45
2022-08-07T18:55:57.295Z,11.85
2022-08-07T18:58:58.548Z,5.75
2022-08-07T19:02:36.616Z,6.70
2022-08-07T19:06:01.938Z,9.33
2022-08-07T19:08:28.979Z,5.82
2022-08-07T19:11:35.816Z,8.75
2022-08-07T19:14:08.026Z,7.95
2022-08-07T19:17:08.227Z,7.30
2022-08-07T19:19:58.445Z,5.00
2022-08-07T19:22:51.828Z,8.70
2022-08-07T19:26:21.710Z,5.57
2022-08-07T19:28:56.401Z,7.47
2022-08-07T19:31:37.142Z,6.95
2022-08-07T19:34:03.128Z,6.83
2022-08-07T19:36:34.401Z,8.52
2022-08-07T19:39:09.098Z,7.57
2022-08-07T19:42:05.500Z,7.10
2022-08-07T19:44:37.883Z,6.13
2022-08-07T19:47:11.507Z,6.20
2022-08-07T19:49:57.520Z,6.32
2022-08-07T19:52:28.127Z,11.23
2022-08-07T19:54:58.663Z,5.95
2022-08-07T19:58:04.424Z,9.07
2022-08-07T20:00:28.393Z,5.97
2022-08-07T20:03:34.075Z,5.43
2022-08-07T20:06:03.539Z,8.27
2022-08-07T20:08:37.640Z,6.70
2022-08-07T20:11:10.624Z,7.20
2022-08-07T20:13:46.358Z,9.07
2022-08-07T20:16:34.859Z,10.18
2022-08-07T20:19:10.570Z,6.72
2022-08-07T20:21:47.592Z,9.05
2022-08-07T20:24:28.772Z,8.10
2022-08-07T20:26:59.339Z,10.80
2022-08-07T20:29:47.950Z,7.13
2022-08-07T20:32:40.596Z,7.65
2022-08-07T20:35:17.792Z,6.40
2022-08-07T20:37:57.825Z,7.55
2022-08-07T20:40:32.143Z,7.60
2022-08-07T20:43:03.138Z,8.52
2022-08-07T20:46:28.848Z,7.90
2022-08-07T20:48:29.797Z,9.27
2022-08-07T20:51:00.155Z,9.50
2022-08-07T20:54:04.851Z,10.07
2022-08-07T20:56:16.510Z,6.95
2022-08-07T20:58:49.624Z,5.70
2022-08-07T21:01:21.774Z,10.43
2022-08-07T21:04:19.850Z,7.05
2022-08-07T21:06:53.716Z,8.30
2022-08-07T21:09:24.573Z,10.18
2022-08-07T21:11:57.617Z,7.07
2022-08-07T21:14:38.984Z,6.13
2022-08-07T21:18:02.995Z,7.45
2022-08-07T21:20:10.491Z,7.63
2022-08-07T21:22:53.467Z,7.38
2022-08-07T21:25:38.710Z,10.07
2022-08-07T21:28:47.549Z,7.28
2022-08-07T21:31:14.352Z,7.75
2022-08-07T21:33:49.309Z,10.90
2022-08-07T21:36:36.228Z,6.13
2022-08-07T21:39:46.591Z,11.05
2022-08-07T21:42:48.722Z,9.60
2022-08-07T21:46:09.686Z,8.80
2022-08-07T21:48:57.517Z,7.67
2022-08-07T21:51:27.229Z,7.88
2022-08-07T21:54:13.024Z,6.88
2022-08-07T21:56:50.633Z,11.57
2022-08-07T22:00:04.163Z,11.20
2022-08-07T22:02:46.545Z,8.77
2022-08-07T22:05:22.104Z,7.40
2022-08-07T22:08:10.510Z,11.60
2022-08-07T22:10:42.477Z,9.75
2022-08-07T22:13:14.363Z,14.10
2022-08-07T22:16:45.110Z,10.47
2022-08-07T22:18:43.150Z,13.68
2022-08-07T22:22:05.214Z,14.60
2022-08-07T22:24:32.663Z,12.13
2022-08-07T22:27:07.467Z,11.52
2022-08-07T22:29:48.127Z,8.97
2022-08-07T22:32:39.072Z,12.07
2022-08-07T22:35:11.341Z,10.55
2022-08-07T22:38:04.224Z,11.85
2022-08-07T22:41:03.540Z,15.05
2022-08-07T22:43:57.814Z,9.50
2022-08-07T22:47:04.359Z,10.85
2022-08-07T22:49:58.451Z,11.52
2022-08-07T22:52:47.740Z,12.38
2022-08-07T22:55:34.119Z,12.18
2022-08-07T22:58:06.899Z,9.80
2022-08-07T23:00:46.516Z,10.82
2022-08-07T23:03:58.151Z,12.80
2022-08-07T23:06:51.732Z,13.45
2022-08-07T23:10:05.147Z,10.73
2022-08-07T23:12:35.695Z,12.30
2022-08-07T23:16:04.367Z,10.20
2022-08-07T23:18:22.992Z,11.40
2022-08-07T23:21:23.377Z,12.98
2022-08-07T23:24:35.007Z,11.88
2022-08-07T23:27:34.047Z,11.70
2022-08-07T23:30:37.607Z,12.18
2022-08-07T23:34:21.550Z,11.82
2022-08-07T23:36:10.608Z,8.98
2022-08-07T23:39:01.870Z,8.90
2022-08-07T23:42:04.197Z,12.60
2022-08-07T23:44:32.479Z,23.17
2022-08-07T23:47:48.291Z,9.98
2022-08-07T23:50:28.300Z,15.13
2022-08-07T23:53:21.220Z,11.73
2022-08-07T23:56:14.569Z,9.97
2022-08-07T23:58:47.491Z,9.20
